sensor_id;sensor_type;location;lat;lon;timestamp;P1;durP1;ratioP1;P2;durP2;ratioP2
53939;SDS011;39850;43.324;21.916;2024-01-10T00:03:46;18.0;;;15.0;;
53939;SDS011;39850;43.324;21.916;2024-01-10T00:08:23;18.0;;;15.0;;
53939;SDS011;39850;43.324;21.916;2024-01-10T00:12:59;19.0;;;15.0;;
53939;SDS011;39850;43.324;21.916;2024-01-10T00:17:36;19.0;;;15.0;;
53939;SDS011;39850;43.324;21.916;2024-01-10T00:22:12;19.0;;;15.0;;
53939;SDS011;39850;43.324;21.916;2024-01-10T00:26:48;19.0;;;15.0;;
53939;SDS011;39850;43.324;21.916;2024-01-10T00:59:02;16.0;;;14.0;;
53939;SDS011;39850;43.324;21.916;2024-01-10T01:03:38;16.0;;;14.0;;
53939;SDS011;39850;43.324;21.916;2024-01-10T01:08:15;16.0;;;14.0;;
53939;SDS011;39850;43.324;21.916;2024-01-10T01:12:51;15.0;;;14.0;;
53939;SDS011;39850;43.324;21.916;2024-01-10T01:17:28;15.0;;;14.0;;
53939;SDS011;39850;43.324;21.916;2024-01-10T01:22:05;14.0;;;13.0;;
53939;SDS011;39850;43.324;21.916;2024-01-10T01:26:41;14.0;;;13.0;;
53939;SDS011;39850;43.324;21.916;2024-01-10T01:31:18;14.0;;;12.0;;
53939;SDS011;39850;43.324;21.916;2024-01-10T01:35:54;14.0;;;12.0;;
53939;SDS011;39850;43.324;21.916;2024-01-10T01:40:31;13.0;;;11.0;;
53939;SDS011;39850;43.324;21.916;2024-01-10T01:45:09;13.0;;;11.0;;
53939;SDS011;39850;43.324;21.916;2024-01-10T02:22:06;12.0;;;11.0;;
53939;SDS011;39850;43.324;21.916;2024-01-10T02:26:43;12.0;;;11.0;;
53939;SDS011;39850;43.324;21.916;2024-01-10T02:31:20;12.0;;;11.0;;
53939;SDS011;39850;43.324;21.916;2024-01-10T02:35:56;12.0;;;11.0;;
53939;SDS011;39850;43.324;21.916;2024-01-10T02:40:32;13.0;;;11.0;;
53939;SDS011;39850;43.324;21.916;2024-01-10T02:45:09;13.0;;;11.0;;
53939;SDS011;39850;43.324;21.916;2024-01-10T02:49:46;13.0;;;11.0;;
53939;SDS011;39850;43.324;21.916;2024-01-10T02:54:22;13.0;;;11.0;;
53939;SDS011;39850;43.324;21.916;2024-01-10T02:58:59;13.0;;;11.0;;
53939;SDS011;39850;43.324;21.916;2024-01-10T03:03:35;13.0;;;11.0;;
53939;SDS011;39850;43.324;21.916;2024-01-10T03:08:11;13.0;;;11.0;;
53939;SDS011;39850;43.324;21.916;2024-01-10T03:40:27;12.0;;;10.0;;
53939;SDS011;39850;43.324;21.916;2024-01-10T03:45:06;12.0;;;10.0;;
53939;SDS011;39850;43.324;21.916;2024-01-10T03:49:42;12.0;;;10.0;;
53939;SDS011;39850;43.324;21.916;2024-01-10T03:54:19;12.0;;;10.0;;
53939;SDS011;39850;43.324;21.916;2024-01-10T03:58:55;12.0;;;10.0;;
53939;SDS011;39850;43.324;21.916;2024-01-10T04:03:33;12.0;;;10.0;;
53939;SDS011;39850;43.324;21.916;2024-01-10T04:08:09;12.0;;;10.0;;
53939;SDS011;39850;43.324;21.916;2024-01-10T04:12:46;13.0;;;11.0;;
53939;SDS011;39850;43.324;21.916;2024-01-10T04:17:23;13.0;;;11.0;;
53939;SDS011;39850;43.324;21.916;2024-01-10T04:22:00;13.0;;;11.0;;
53939;SDS011;39850;43.324;21.916;2024-01-10T04:26:37;13.0;;;11.0;;
53939;SDS011;39850;43.324;21.916;2024-01-10T05:03:31;12.0;;;11.0;;
53939;SDS011;39850;43.324;21.916;2024-01-10T05:08:08;12.0;;;11.0;;
53939;SDS011;39850;43.324;21.916;2024-01-10T05:12:44;12.0;;;11.0;;
53939;SDS011;39850;43.324;21.916;2024-01-10T05:17:21;12.0;;;11.0;;
53939;SDS011;39850;43.324;21.916;2024-01-10T05:21:58;13.0;;;11.0;;
53939;SDS011;39850;43.324;21.916;2024-01-10T05:26:34;13.0;;;11.0;;
53939;SDS011;39850;43.324;21.916;2024-01-10T05:31:11;13.0;;;11.0;;
53939;SDS011;39850;43.324;21.916;2024-01-10T05:35:47;13.0;;;11.0;;
53939;SDS011;39850;43.324;21.916;2024-01-10T05:40:24;13.0;;;11.0;;
53939;SDS011;39850;43.324;21.916;2024-01-10T05:45:01;13.0;;;11.0;;
53939;SDS011;39850;43.324;21.916;2024-01-10T05:49:37;13.0;;;11.0;;
53939;SDS011;39850;43.324;21.916;2024-01-10T06:21:51;27.0;;;21.0;;
53939;SDS011;39850;43.324;21.916;2024-01-10T06:26:28;27.0;;;21.0;;
53939;SDS011;39850;43.324;21.916;2024-01-10T06:31:04;26.0;;;20.0;;
53939;SDS011;39850;43.324;21.916;2024-01-10T06:35:42;26.0;;;20.0;;
53939;SDS011;39850;43.324;21.916;2024-01-10T06:40:18;27.0;;;21.0;;
53939;SDS011;39850;43.324;21.916;2024-01-10T06:44:55;27.0;;;21.0;;
53939;SDS011;39850;43.324;21.916;2024-01-10T06:49:31;27.0;;;21.0;;
53939;SDS011;39850;43.324;21.916;2024-01-10T06:54:08;26.0;;;21.0;;
53939;SDS011;39850;43.324;21.916;2024-01-10T06:58:44;26.0;;;21.0;;
53939;SDS011;39850;43.324;21.916;2024-01-10T07:03:20;27.0;;;22.0;;
53939;SDS011;39850;43.324;21.916;2024-01-10T07:07:56;27.0;;;22.0;;
53939;SDS011;39850;43.324;21.916;2024-01-10T07:44:47;24.0;;;21.0;;
53939;SDS011;39850;43.324;21.916;2024-01-10T07:49:24;24.0;;;21.0;;
53939;SDS011;39850;43.324;21.916;2024-01-10T07:54:00;26.0;;;22.0;;
53939;SDS011;39850;43.324;21.916;2024-01-10T07:58:36;26.0;;;22.0;;
53939;SDS011;39850;43.324;21.916;2024-01-10T08:03:13;25.0;;;21.0;;
53939;SDS011;39850;43.324;21.916;2024-01-10T08:07:49;25.0;;;21.0;;
53939;SDS011;39850;43.324;21.916;2024-01-10T08:12:25;26.0;;;22.0;;
53939;SDS011;39850;43.324;21.916;2024-01-10T08:17:02;26.0;;;22.0;;
53939;SDS011;39850;43.324;21.916;2024-01-10T08:21:39;25.0;;;20.0;;
53939;SDS011;39850;43.324;21.916;2024-01-10T08:26:15;25.0;;;20.0;;
53939;SDS011;39850;43.324;21.916;2024-01-10T09:03:09;22.0;;;19.0;;
53939;SDS011;39850;43.324;21.916;2024-01-10T09:07:45;22.0;;;19.0;;
53939;SDS011;39850;43.324;21.916;2024-01-10T09:12:23;23.0;;;20.0;;
53939;SDS011;39850;43.324;21.916;2024-01-10T09:16:59;23.0;;;20.0;;
53939;SDS011;39850;43.324;21.916;2024-01-10T09:21:36;24.0;;;20.0;;
53939;SDS011;39850;43.324;21.916;2024-01-10T09:26:16;24.0;;;20.0;;
53939;SDS011;39850;43.324;21.916;2024-01-10T09:30:53;25.0;;;21.0;;
53939;SDS011;39850;43.324;21.916;2024-01-10T09:35:29;25.0;;;21.0;;
53939;SDS011;39850;43.324;21.916;2024-01-10T09:40:15;25.0;;;21.0;;
53939;SDS011;39850;43.324;21.916;2024-01-10T09:44:53;26.0;;;22.0;;
53939;SDS011;39850;43.324;21.916;2024-01-10T09:49:30;26.0;;;22.0;;
53939;SDS011;39850;43.324;21.916;2024-01-10T10:22:09;28.0;;;25.0;;
53939;SDS011;39850;43.324;21.916;2024-01-10T10:26:47;28.0;;;25.0;;
53939;SDS011;39850;43.324;21.916;2024-01-10T10:31:25;30.0;;;25.0;;
53939;SDS011;39850;43.324;21.916;2024-01-10T10:36:04;30.0;;;25.0;;
53939;SDS011;39850;43.324;21.916;2024-01-10T10:40:42;30.0;;;25.0;;
53939;SDS011;39850;43.324;21.916;2024-01-10T10:45:19;28.0;;;25.0;;
53939;SDS011;39850;43.324;21.916;2024-01-10T10:50:02;28.0;;;25.0;;
53939;SDS011;39850;43.324;21.916;2024-01-10T10:54:41;28.0;;;23.0;;
53939;SDS011;39850;43.324;21.916;2024-01-10T10:59:26;28.0;;;23.0;;
53939;SDS011;39850;43.324;21.916;2024-01-10T11:04:05;24.0;;;21.0;;
53939;SDS011;39850;43.324;21.916;2024-01-10T11:08:59;24.0;;;21.0;;
53939;SDS011;39850;43.324;21.916;2024-01-10T11:43:40;16.0;;;13.0;;
53939;SDS011;39850;43.324;21.916;2024-01-10T11:48:27;16.0;;;13.0;;
53939;SDS011;39850;43.324;21.916;2024-01-10T11:53:04;16.0;;;14.0;;
53939;SDS011;39850;43.324;21.916;2024-01-10T11:57:40;16.0;;;14.0;;
53939;SDS011;39850;43.324;21.916;2024-01-10T12:02:20;15.0;;;13.0;;
53939;SDS011;39850;43.324;21.916;2024-01-10T12:06:58;15.0;;;13.0;;
53939;SDS011;39850;43.324;21.916;2024-01-10T12:11:35;14.0;;;13.0;;
53939;SDS011;39850;43.324;21.916;2024-01-10T12:16:14;14.0;;;13.0;;
53939;SDS011;39850;43.324;21.916;2024-01-10T12:20:51;14.0;;;13.0;;
53939;SDS011;39850;43.324;21.916;2024-01-10T12:25:27;14.0;;;12.0;;
53939;SDS011;39850;43.324;21.916;2024-01-10T12:30:08;14.0;;;12.0;;
53939;SDS011;39850;43.324;21.916;2024-01-10T13:02:31;12.0;;;11.0;;
53939;SDS011;39850;43.324;21.916;2024-01-10T13:07:07;12.0;;;11.0;;
53939;SDS011;39850;43.324;21.916;2024-01-10T13:11:44;12.0;;;11.0;;
53939;SDS011;39850;43.324;21.916;2024-01-10T13:16:21;12.0;;;11.0;;
53939;SDS011;39850;43.324;21.916;2024-01-10T13:20:58;12.0;;;11.0;;
53939;SDS011;39850;43.324;21.916;2024-01-10T13:25:36;12.0;;;11.0;;
53939;SDS011;39850;43.324;21.916;2024-01-10T13:30:14;12.0;;;11.0;;
53939;SDS011;39850;43.324;21.916;2024-01-10T13:34:50;12.0;;;11.0;;
53939;SDS011;39850;43.324;21.916;2024-01-10T13:39:26;12.0;;;11.0;;
53939;SDS011;39850;43.324;21.916;2024-01-10T13:44:03;12.0;;;11.0;;
53939;SDS011;39850;43.324;21.916;2024-01-10T13:48:39;12.0;;;11.0;;
53939;SDS011;39850;43.324;21.916;2024-01-10T14:25:29;19.0;;;16.0;;
53939;SDS011;39850;43.324;21.916;2024-01-10T14:30:08;19.0;;;16.0;;
53939;SDS011;39850;43.324;21.916;2024-01-10T14:34:45;22.0;;;18.0;;
53939;SDS011;39850;43.324;21.916;2024-01-10T14:39:21;22.0;;;18.0;;
53939;SDS011;39850;43.324;21.916;2024-01-10T14:43:59;22.0;;;18.0;;
53939;SDS011;39850;43.324;21.916;2024-01-10T14:48:36;22.0;;;18.0;;
53939;SDS011;39850;43.324;21.916;2024-01-10T14:53:13;23.0;;;18.0;;
53939;SDS011;39850;43.324;21.916;2024-01-10T14:57:50;23.0;;;18.0;;
53939;SDS011;39850;43.324;21.916;2024-01-10T15:02:26;22.0;;;18.0;;
53939;SDS011;39850;43.324;21.916;2024-01-10T15:07:04;22.0;;;18.0;;
53939;SDS011;39850;43.324;21.916;2024-01-10T15:11:42;22.0;;;18.0;;
53939;SDS011;39850;43.324;21.916;2024-01-10T15:44:00;23.0;;;17.0;;
53939;SDS011;39850;43.324;21.916;2024-01-10T15:48:37;23.0;;;17.0;;
53939;SDS011;39850;43.324;21.916;2024-01-10T15:53:13;22.0;;;17.0;;
53939;SDS011;39850;43.324;21.916;2024-01-10T15:57:49;22.0;;;17.0;;
53939;SDS011;39850;43.324;21.916;2024-01-10T16:02:27;22.0;;;17.0;;
53939;SDS011;39850;43.324;21.916;2024-01-10T16:07:04;22.0;;;17.0;;
53939;SDS011;39850;43.324;21.916;2024-01-10T16:11:42;22.0;;;17.0;;
53939;SDS011;39850;43.324;21.916;2024-01-10T16:16:27;21.0;;;16.0;;
53939;SDS011;39850;43.324;21.916;2024-01-10T16:21:05;21.0;;;16.0;;
53939;SDS011;39850;43.324;21.916;2024-01-10T16:25:41;20.0;;;15.0;;
53939;SDS011;39850;43.324;21.916;2024-01-10T16:30:18;20.0;;;15.0;;
53939;SDS011;39850;43.324;21.916;2024-01-10T17:02:31;32.0;;;26.0;;
53939;SDS011;39850;43.324;21.916;2024-01-10T17:07:08;32.0;;;26.0;;
53939;SDS011;39850;43.324;21.916;2024-01-10T17:11:44;32.0;;;26.0;;
53939;SDS011;39850;43.324;21.916;2024-01-10T17:16:20;32.0;;;25.0;;
53939;SDS011;39850;43.324;21.916;2024-01-10T17:20:56;32.0;;;25.0;;
53939;SDS011;39850;43.324;21.916;2024-01-10T17:25:33;32.0;;;26.0;;
53939;SDS011;39850;43.324;21.916;2024-01-10T17:30:11;32.0;;;26.0;;
53939;SDS011;39850;43.324;21.916;2024-01-10T17:34:48;32.0;;;25.0;;
53939;SDS011;39850;43.324;21.916;2024-01-10T17:39:24;32.0;;;25.0;;
53939;SDS011;39850;43.324;21.916;2024-01-10T17:44:01;33.0;;;26.0;;
53939;SDS011;39850;43.324;21.916;2024-01-10T17:48:37;33.0;;;26.0;;
53939;SDS011;39850;43.324;21.916;2024-01-10T18:25:26;45.0;;;36.0;;
53939;SDS011;39850;43.324;21.916;2024-01-10T18:30:07;45.0;;;36.0;;
53939;SDS011;39850;43.324;21.916;2024-01-10T18:34:44;75.0;;;54.0;;
53939;SDS011;39850;43.324;21.916;2024-01-10T18:39:20;75.0;;;54.0;;
53939;SDS011;39850;43.324;21.916;2024-01-10T18:43:56;85.0;;;65.0;;
53939;SDS011;39850;43.324;21.916;2024-01-10T18:48:33;85.0;;;65.0;;
53939;SDS011;39850;43.324;21.916;2024-01-10T18:53:09;95.0;;;68.0;;
53939;SDS011;39850;43.324;21.916;2024-01-10T18:57:45;95.0;;;68.0;;
53939;SDS011;39850;43.324;21.916;2024-01-10T19:02:22;95.0;;;68.0;;
53939;SDS011;39850;43.324;21.916;2024-01-10T19:06:58;85.0;;;65.0;;
53939;SDS011;39850;43.324;21.916;2024-01-10T19:11:34;85.0;;;65.0;;
53939;SDS011;39850;43.324;21.916;2024-01-10T19:43:50;121.0;;;86.0;;
53939;SDS011;39850;43.324;21.916;2024-01-10T19:48:27;121.0;;;86.0;;
53939;SDS011;39850;43.324;21.916;2024-01-10T19:53:03;116.0;;;82.0;;
53939;SDS011;39850;43.324;21.916;2024-01-10T19:57:40;116.0;;;82.0;;
53939;SDS011;39850;43.324;21.916;2024-01-10T20:02:17;116.0;;;82.0;;
53939;SDS011;39850;43.324;21.916;2024-01-10T20:06:53;121.0;;;86.0;;
53939;SDS011;39850;43.324;21.916;2024-01-10T20:11:30;121.0;;;86.0;;
53939;SDS011;39850;43.324;21.916;2024-01-10T20:16:07;132.0;;;94.0;;
53939;SDS011;39850;43.324;21.916;2024-01-10T20:20:44;132.0;;;94.0;;
53939;SDS011;39850;43.324;21.916;2024-01-10T20:25:21;154.0;;;108.0;;
53939;SDS011;39850;43.324;21.916;2024-01-10T20:29:58;154.0;;;108.0;;
53939;SDS011;39850;43.324;21.916;2024-01-10T21:06:48;139.0;;;95.0;;
53939;SDS011;39850;43.324;21.916;2024-01-10T21:11:25;139.0;;;95.0;;
53939;SDS011;39850;43.324;21.916;2024-01-10T21:16:02;108.0;;;76.0;;
53939;SDS011;39850;43.324;21.916;2024-01-10T21:20:39;108.0;;;76.0;;
53939;SDS011;39850;43.324;21.916;2024-01-10T21:25:15;77.0;;;57.0;;
53939;SDS011;39850;43.324;21.916;2024-01-10T21:29:52;77.0;;;57.0;;
53939;SDS011;39850;43.324;21.916;2024-01-10T21:34:28;74.0;;;55.0;;
53939;SDS011;39850;43.324;21.916;2024-01-10T21:39:05;74.0;;;55.0;;
53939;SDS011;39850;43.324;21.916;2024-01-10T21:43:41;70.0;;;53.0;;
53939;SDS011;39850;43.324;21.916;2024-01-10T21:48:18;70.0;;;53.0;;
53939;SDS011;39850;43.324;21.916;2024-01-10T21:52:54;70.0;;;53.0;;
53939;SDS011;39850;43.324;21.916;2024-01-10T22:25:08;94.0;;;67.0;;
53939;SDS011;39850;43.324;21.916;2024-01-10T22:29:45;94.0;;;67.0;;
53939;SDS011;39850;43.324;21.916;2024-01-10T22:34:21;94.0;;;67.0;;
53939;SDS011;39850;43.324;21.916;2024-01-10T22:38:58;94.0;;;67.0;;
53939;SDS011;39850;43.324;21.916;2024-01-10T22:43:34;106.0;;;74.0;;
53939;SDS011;39850;43.324;21.916;2024-01-10T22:48:11;106.0;;;74.0;;
53939;SDS011;39850;43.324;21.916;2024-01-10T22:52:48;106.0;;;74.0;;
53939;SDS011;39850;43.324;21.916;2024-01-10T22:57:25;117.0;;;81.0;;
53939;SDS011;39850;43.324;21.916;2024-01-10T23:02:01;117.0;;;81.0;;
53939;SDS011;39850;43.324;21.916;2024-01-10T23:06:38;117.0;;;81.0;;
53939;SDS011;39850;43.324;21.916;2024-01-10T23:11:14;117.0;;;81.0;;
53939;SDS011;39850;43.324;21.916;2024-01-10T23:48:08;83.0;;;60.0;;
53939;SDS011;39850;43.324;21.916;2024-01-10T23:52:44;83.0;;;60.0;;
53939;SDS011;39850;43.324;21.916;2024-01-10T23:57:20;88.0;;;62.0;;
